createdAt,value
2023-05-19T00:01:36.334Z,61.85
2023-05-19T00:04:17.716Z,61.48
2023-05-19T00:06:57.917Z,61.71
2023-05-19T00:09:33.508Z,61.70
2023-05-19T00:12:08.655Z,61.76
2023-05-19T00:14:46.549Z,61.68
2023-05-19T00:17:25.161Z,61.67
2023-05-19T00:19:59.785Z,61.64
2023-05-19T00:22:38.264Z,61.69
2023-05-19T00:25:20.486Z,61.72
2023-05-19T00:28:08.384Z,61.85
2023-05-19T00:30:44.320Z,61.98
2023-05-19T00:33:22.350Z,62.13
2023-05-19T00:35:57.973Z,62.14
2023-05-19T00:38:39.967Z,62.23
2023-05-19T00:41:16.882Z,62.18
2023-05-19T00:43:56.833Z,62.26
2023-05-19T00:46:33.371Z,62.31
2023-05-19T00:49:09.539Z,62.44
2023-05-19T00:51:45.754Z,62.53
2023-05-19T00:54:26.681Z,62.45
2023-05-19T00:57:06.402Z,62.45
2023-05-19T00:59:42.696Z,62.38
2023-05-19T01:02:19.618Z,62.46
2023-05-19T01:04:58.026Z,62.51
2023-05-19T01:07:34.212Z,62.43
2023-05-19T01:10:12.871Z,62.35
2023-05-19T01:12:50.898Z,62.63
2023-05-19T01:15:29.356Z,62.63
2023-05-19T01:18:12.371Z,62.64
2023-05-19T01:20:53.353Z,62.49
2023-05-19T01:23:46.648Z,62.66
2023-05-19T01:27:00.368Z,62.58
2023-05-19T01:29:54.982Z,62.77
2023-05-19T01:32:32.173Z,62.96
2023-05-19T01:35:13.649Z,63.09
2023-05-19T01:37:57.507Z,63.26
2023-05-19T01:40:35.261Z,63.24
2023-05-19T01:43:15.746Z,63.20
2023-05-19T01:45:56.013Z,63.27
2023-05-19T01:48:33.404Z,63.18
2023-05-19T01:51:10.399Z,63.28
2023-05-19T01:53:46.715Z,63.22
2023-05-19T01:56:36.518Z,63.12
2023-05-19T01:59:18.924Z,63.06
2023-05-19T02:02:02.029Z,63.29
2023-05-19T02:04:47.269Z,63.31
2023-05-19T02:07:35.269Z,63.48
2023-05-19T02:10:22.685Z,63.65
2023-05-19T02:13:01.006Z,63.86
2023-05-19T02:15:42.810Z,63.96
2023-05-19T02:18:20.717Z,63.97
2023-05-19T02:21:02.038Z,63.91
2023-05-19T02:23:37.885Z,63.87
2023-05-19T02:26:16.224Z,63.97
2023-05-19T02:28:53.162Z,64.05
2023-05-19T02:31:49.500Z,63.80
2023-05-19T02:34:27.281Z,63.98
2023-05-19T02:37:04.476Z,64.23
2023-05-19T02:39:45.802Z,64.34
2023-05-19T02:42:23.105Z,64.51
2023-05-19T02:45:00.135Z,64.74
2023-05-19T02:47:38.802Z,64.70
2023-05-19T02:50:23.036Z,64.76
2023-05-19T02:52:56.981Z,64.92
2023-05-19T02:55:33.898Z,64.94
2023-05-19T02:58:08.248Z,64.97
2023-05-19T03:00:48.472Z,65.31
2023-05-19T03:03:22.931Z,65.37
2023-05-19T03:06:00.126Z,65.39
2023-05-19T03:08:38.819Z,65.26
2023-05-19T03:11:19.320Z,65.10
2023-05-19T03:14:02.823Z,65.11
2023-05-19T03:16:43.392Z,65.30
2023-05-19T03:19:21.587Z,65.41
2023-05-19T03:22:01.767Z,65.41
2023-05-19T03:24:40.267Z,65.57
2023-05-19T03:27:26.113Z,65.44
2023-05-19T03:30:06.346Z,65.57
2023-05-19T03:32:48.077Z,65.62
2023-05-19T03:35:25.882Z,65.68
2023-05-19T03:38:02.922Z,65.62
2023-05-19T03:40:39.024Z,65.64
2023-05-19T03:43:19.008Z,65.58
2023-05-19T03:46:04.236Z,65.58
2023-05-19T03:49:08.021Z,65.89
2023-05-19T03:52:05.545Z,65.99
2023-05-19T03:54:46.269Z,66.04
2023-05-19T03:57:23.058Z,66.31
2023-05-19T03:59:59.581Z,66.38
2023-05-19T04:02:37.475Z,66.61
2023-05-19T04:05:13.548Z,66.84
2023-05-19T04:07:52.928Z,66.85
2023-05-19T04:10:34.643Z,66.91
2023-05-19T04:13:19.104Z,66.93
2023-05-19T04:16:14.646Z,66.86
2023-05-19T04:18:58.490Z,67.03
2023-05-19T04:21:49.785Z,67.07
2023-05-19T04:24:23.644Z,67.32
2023-05-19T04:26:56.933Z,67.36
2023-05-19T04:29:34.051Z,67.44
2023-05-19T04:32:29.609Z,67.43
2023-05-19T04:35:07.290Z,67.22
2023-05-19T04:37:46.967Z,66.94
2023-05-19T04:40:24.631Z,66.67
2023-05-19T04:43:02.465Z,66.58
2023-05-19T04:45:43.111Z,66.86
2023-05-19T04:48:18.780Z,67.26
2023-05-19T04:50:56.041Z,67.28
2023-05-19T04:53:30.986Z,67.28
2023-05-19T04:56:10.918Z,67.37
2023-05-19T04:58:47.153Z,67.21
2023-05-19T05:01:27.388Z,67.01
2023-05-19T05:04:03.229Z,67.13
2023-05-19T05:06:41.946Z,67.20
2023-05-19T05:09:17.667Z,67.34
2023-05-19T05:11:56.978Z,67.37
2023-05-19T05:14:35.530Z,67.23
2023-05-19T05:17:17.704Z,67.25
2023-05-19T05:19:54.259Z,67.17
2023-05-19T05:22:44.840Z,67.18
2023-05-19T05:25:25.078Z,67.18
2023-05-19T05:28:19.353Z,67.16
2023-05-19T05:31:00.389Z,67.07
2023-05-19T05:33:37.744Z,66.88
2023-05-19T05:36:16.945Z,66.68
2023-05-19T05:38:57.594Z,66.54
2023-05-19T05:41:38.190Z,66.63
2023-05-19T05:44:18.169Z,66.57
2023-05-19T05:47:15.750Z,66.55
2023-05-19T05:50:05.139Z,66.23
2023-05-19T05:52:43.107Z,65.92
2023-05-19T05:55:31.414Z,65.48
2023-05-19T05:58:11.823Z,65.00
2023-05-19T06:00:52.139Z,65.21
2023-05-19T06:03:30.002Z,64.75
2023-05-19T06:06:08.582Z,64.80
2023-05-19T06:08:45.107Z,64.67
2023-05-19T06:11:20.456Z,64.61
2023-05-19T06:13:56.118Z,64.34
2023-05-19T06:16:54.172Z,64.61
2023-05-19T06:19:36.678Z,64.48
2023-05-19T06:22:12.975Z,63.98
2023-05-19T06:24:54.199Z,63.90
2023-05-19T06:27:29.931Z,63.81
2023-05-19T06:30:09.059Z,63.52
2023-05-19T06:33:03.451Z,63.70
2023-05-19T06:35:45.523Z,63.47
2023-05-19T06:38:25.521Z,63.55
2023-05-19T06:41:19.241Z,63.63
2023-05-19T06:44:00.140Z,63.48
2023-05-19T06:46:40.896Z,63.06
2023-05-19T06:49:30.826Z,62.63
2023-05-19T06:52:11.555Z,62.75
2023-05-19T06:54:47.425Z,63.19
2023-05-19T06:57:23.867Z,62.35
2023-05-19T07:00:07.029Z,62.21
2023-05-19T07:03:05.092Z,62.33
2023-05-19T07:05:43.132Z,61.99
2023-05-19T07:08:19.711Z,61.98
2023-05-19T07:10:57.554Z,61.61
2023-05-19T07:13:39.099Z,60.90
2023-05-19T07:16:15.304Z,61.37
2023-05-19T07:18:50.732Z,61.15
2023-05-19T07:21:30.696Z,61.66
2023-05-19T07:24:25.185Z,61.30
2023-05-19T07:26:58.282Z,61.43
2023-05-19T07:29:31.353Z,61.31
2023-05-19T07:32:05.288Z,61.20
2023-05-19T07:34:38.165Z,61.13
2023-05-19T07:37:10.993Z,61.04
2023-05-19T07:39:43.999Z,61.32
2023-05-19T07:42:16.797Z,61.46
2023-05-19T07:44:49.595Z,61.19
2023-05-19T07:47:22.368Z,61.33
2023-05-19T07:49:55.308Z,61.32
2023-05-19T07:52:29.180Z,61.40
2023-05-19T07:55:02.119Z,61.17
2023-05-19T07:57:34.937Z,61.12
2023-05-19T08:00:14.362Z,61.29
2023-05-19T08:02:48.102Z,60.78
2023-05-19T08:05:20.981Z,60.71
2023-05-19T08:07:53.786Z,61.02
2023-05-19T08:10:26.591Z,61.48
2023-05-19T08:12:59.366Z,61.32
2023-05-19T08:15:32.989Z,61.40
2023-05-19T08:18:06.636Z,61.36
2023-05-19T08:20:40.677Z,61.56
2023-05-19T08:23:15.681Z,61.61
2023-05-19T08:25:48.465Z,61.67
2023-05-19T08:28:21.376Z,61.00
2023-05-19T08:30:58.358Z,61.18
2023-05-19T08:33:40.930Z,61.49
2023-05-19T08:36:20.495Z,61.03
2023-05-19T08:38:58.771Z,61.01
2023-05-19T08:41:35.712Z,61.37
2023-05-19T08:44:13.819Z,61.13
2023-05-19T08:46:53.812Z,60.55
2023-05-19T08:49:34.990Z,60.32
2023-05-19T08:52:20.821Z,60.24
2023-05-19T08:55:03.503Z,59.98
2023-05-19T08:57:38.438Z,60.01
2023-05-19T09:00:24.128Z,60.11
2023-05-19T09:03:17.629Z,60.51
2023-05-19T09:05:57.757Z,60.31
2023-05-19T09:08:32.456Z,59.53
2023-05-19T09:11:07.932Z,59.50
2023-05-19T09:13:43.986Z,59.96
2023-05-19T09:16:32.855Z,60.26
2023-05-19T09:19:24.155Z,59.97
2023-05-19T09:22:16.863Z,59.86
2023-05-19T09:24:57.466Z,60.20
2023-05-19T09:27:38.544Z,59.90
2023-05-19T09:30:20.570Z,59.67
2023-05-19T09:33:05.781Z,59.48
2023-05-19T09:35:58.532Z,59.96
2023-05-19T09:38:35.369Z,59.76
2023-05-19T09:41:22.417Z,59.88
2023-05-19T09:44:00.704Z,59.61
2023-05-19T09:47:00.851Z,59.72
2023-05-19T09:49:36.697Z,59.72
2023-05-19T09:52:12.687Z,59.82
2023-05-19T09:54:52.679Z,60.47
2023-05-19T09:57:35.967Z,60.47
2023-05-19T10:00:18.998Z,60.57
2023-05-19T10:02:54.930Z,60.02
2023-05-19T10:05:39.296Z,60.64
2023-05-19T10:08:30.750Z,60.91
2023-05-19T10:11:10.004Z,61.51
2023-05-19T10:13:53.692Z,61.48
2023-05-19T10:16:35.632Z,62.30
2023-05-19T10:19:14.103Z,62.90
2023-05-19T10:21:53.276Z,63.35
2023-05-19T10:24:39.964Z,63.31
2023-05-19T10:27:20.671Z,64.01
2023-05-19T10:30:09.403Z,64.54
2023-05-19T10:32:51.046Z,64.70
2023-05-19T10:36:30.760Z,64.89
2023-05-19T10:39:14.139Z,65.11
2023-05-19T10:42:07.408Z,65.99
2023-05-19T10:44:59.059Z,66.45
2023-05-19T10:47:38.640Z,66.40
2023-05-19T10:50:17.351Z,66.88
2023-05-19T10:52:58.245Z,67.17
2023-05-19T10:55:57.219Z,67.77
2023-05-19T10:59:32.941Z,67.99
2023-05-19T11:02:10.575Z,68.36
2023-05-19T11:04:58.928Z,68.54
2023-05-19T11:07:46.986Z,68.96
2023-05-19T11:10:31.227Z,68.97
2023-05-19T11:13:23.422Z,68.76
2023-05-19T11:16:03.986Z,68.94
2023-05-19T11:18:42.050Z,68.76
2023-05-19T11:21:21.977Z,69.14
2023-05-19T11:24:00.126Z,68.74
2023-05-19T11:26:47.841Z,68.19
2023-05-19T11:29:23.329Z,68.28
2023-05-19T11:32:00.420Z,68.94
2023-05-19T11:34:41.294Z,68.53
2023-05-19T11:37:18.581Z,68.80
2023-05-19T11:39:56.480Z,68.78
2023-05-19T11:42:38.819Z,69.00
2023-05-19T11:45:16.560Z,68.93
2023-05-19T11:50:43.541Z,68.95
2023-05-19T11:53:20.179Z,68.88
2023-05-19T11:56:15.244Z,68.65
2023-05-19T11:59:01.855Z,68.71
2023-05-19T12:01:41.560Z,68.53
2023-05-19T12:04:18.090Z,68.63
2023-05-19T12:06:55.732Z,68.97
2023-05-19T12:09:34.953Z,68.59
2023-05-19T12:12:20.879Z,68.17
2023-05-19T12:14:59.975Z,67.95
2023-05-19T12:17:37.425Z,68.46
2023-05-19T12:20:17.862Z,68.29
2023-05-19T12:22:52.573Z,67.69
2023-05-19T12:25:29.130Z,67.66
2023-05-19T12:28:05.438Z,67.51
2023-05-19T12:30:56.143Z,67.28
2023-05-19T12:33:29.395Z,66.96
2023-05-19T12:36:02.214Z,66.53
2023-05-19T12:38:37.611Z,66.76
2023-05-19T12:41:12.575Z,66.58
2023-05-19T12:43:45.751Z,66.50
2023-05-19T12:46:20.949Z,66.71
2023-05-19T12:49:03.486Z,66.97
2023-05-19T12:51:38.087Z,67.20
2023-05-19T12:54:13.008Z,67.19
2023-05-19T12:56:54.098Z,67.54
2023-05-19T12:59:38.266Z,67.19
2023-05-19T13:02:12.363Z,67.35
2023-05-19T13:04:46.046Z,67.56
2023-05-19T13:07:18.857Z,67.63
2023-05-19T13:09:52.048Z,67.84
2023-05-19T13:12:24.947Z,67.77
2023-05-19T13:14:58.032Z,67.42
2023-05-19T13:17:30.892Z,67.55
2023-05-19T13:20:04.974Z,67.38
2023-05-19T13:22:38.106Z,67.07
2023-05-19T13:25:12.362Z,66.59
2023-05-19T13:27:47.267Z,66.64
2023-05-19T13:30:21.285Z,66.86
2023-05-19T13:32:56.265Z,66.34
2023-05-19T13:35:30.993Z,66.04
2023-05-19T13:38:10.230Z,65.78
2023-05-19T13:41:10.882Z,65.18
2023-05-19T13:43:47.570Z,64.74
2023-05-19T13:46:26.601Z,64.34
2023-05-19T13:49:06.368Z,64.29
2023-05-19T13:51:39.366Z,64.30
2023-05-19T13:54:12.268Z,64.21
2023-05-19T13:56:48.797Z,64.26
2023-05-19T13:59:22.582Z,64.33
2023-05-19T14:01:55.409Z,64.19
2023-05-19T14:04:28.354Z,63.84
2023-05-19T14:07:01.589Z,63.61
2023-05-19T14:09:35.337Z,63.78
2023-05-19T14:12:15.611Z,63.54
2023-05-19T14:14:50.294Z,63.12
2023-05-19T14:17:23.094Z,62.69
2023-05-19T14:20:11.314Z,62.88
2023-05-19T14:22:44.082Z,63.28
2023-05-19T14:25:19.992Z,63.48
2023-05-19T14:27:58.502Z,63.57
2023-05-19T14:30:32.473Z,63.62
2023-05-19T14:33:07.713Z,63.62
2023-05-19T14:35:43.529Z,63.36
2023-05-19T14:38:18.932Z,63.60
2023-05-19T14:40:57.730Z,63.65
2023-05-19T14:43:42.578Z,63.58
2023-05-19T14:46:16.083Z,63.79
2023-05-19T14:48:54.812Z,63.39
2023-05-19T14:51:32.452Z,63.78
2023-05-19T14:54:07.330Z,63.89
2023-05-19T14:56:51.734Z,63.75
2023-05-19T14:59:25.182Z,64.10
2023-05-19T15:02:02.981Z,64.16
2023-05-19T15:04:42.741Z,63.93
2023-05-19T15:07:20.893Z,63.68
2023-05-19T15:10:01.828Z,63.81
2023-05-19T15:12:35.049Z,63.81
2023-05-19T15:15:16.898Z,64.09
2023-05-19T15:18:23.556Z,64.15
2023-05-19T15:20:56.811Z,64.28
2023-05-19T15:23:29.677Z,64.50
2023-05-19T15:26:02.623Z,64.46
2023-05-19T15:28:35.818Z,64.58
2023-05-19T15:32:01.326Z,64.59
2023-05-19T15:34:36.037Z,64.58
2023-05-19T15:37:09.047Z,64.56
2023-05-19T15:39:41.831Z,64.41
2023-05-19T15:42:14.697Z,64.16
2023-05-19T15:44:47.867Z,64.38
2023-05-19T15:47:24.471Z,64.66
2023-05-19T15:49:57.310Z,64.56
2023-05-19T15:52:30.172Z,64.54
2023-05-19T15:55:02.927Z,64.67
2023-05-19T15:57:35.880Z,64.75
2023-05-19T16:00:14.655Z,65.10
2023-05-19T16:02:47.670Z,65.16
2023-05-19T16:05:20.908Z,65.26
2023-05-19T16:07:53.749Z,65.24
2023-05-19T16:10:31.592Z,65.48
2023-05-19T16:13:06.311Z,65.66
2023-05-19T16:15:40.760Z,65.68
2023-05-19T16:18:13.667Z,65.60
2023-05-19T16:20:46.524Z,65.74
2023-05-19T16:23:19.364Z,65.63
2023-05-19T16:25:53.089Z,65.69
2023-05-19T16:28:41.271Z,65.71
2023-05-19T16:31:28.161Z,65.77
2023-05-19T16:34:04.854Z,65.83
2023-05-19T16:36:44.070Z,65.82
2023-05-19T16:39:26.160Z,65.97
2023-05-19T16:41:59.031Z,66.17
2023-05-19T16:44:34.881Z,66.16
2023-05-19T16:47:08.470Z,66.24
2023-05-19T16:52:32.819Z,66.31
2023-05-19T16:55:06.074Z,66.45
2023-05-19T16:57:38.912Z,66.55
2023-05-19T17:00:15.661Z,66.58
2023-05-19T17:02:48.693Z,66.67
2023-05-19T17:05:24.069Z,66.73
2023-05-19T17:07:56.966Z,66.82
2023-05-19T17:10:29.916Z,66.76
2023-05-19T17:13:02.741Z,66.93
2023-05-19T17:15:38.078Z,67.04
2023-05-19T17:18:12.628Z,67.10
2023-05-19T17:20:46.011Z,67.37
2023-05-19T17:23:18.834Z,67.59
2023-05-19T17:25:55.132Z,67.74
2023-05-19T17:28:28.062Z,67.96
2023-05-19T17:31:01.544Z,67.93
2023-05-19T17:33:34.522Z,67.92
2023-05-19T17:36:09.482Z,68.13
2023-05-19T17:38:42.651Z,68.21
2023-05-19T17:41:15.538Z,68.31
2023-05-19T17:43:49.635Z,68.43
2023-05-19T17:46:23.561Z,68.51
2023-05-19T17:49:03.084Z,68.53
2023-05-19T17:51:36.573Z,68.87
2023-05-19T17:54:10.698Z,68.88
2023-05-19T17:56:45.766Z,69.12
2023-05-19T17:59:27.177Z,69.20
2023-05-19T18:02:00.926Z,69.39
2023-05-19T18:04:35.121Z,69.43
2023-05-19T18:07:10.764Z,69.61
2023-05-19T18:09:48.774Z,69.64
2023-05-19T18:12:21.509Z,69.62
2023-05-19T18:14:54.363Z,69.78
2023-05-19T18:17:27.205Z,69.69
2023-05-19T18:20:00.221Z,69.84
2023-05-19T18:22:33.398Z,69.82
2023-05-19T18:25:07.230Z,69.90
2023-05-19T18:27:40.231Z,69.83
2023-05-19T18:30:15.632Z,69.76
2023-05-19T18:32:53.081Z,69.70
2023-05-19T18:35:27.222Z,69.76
2023-05-19T18:38:01.181Z,69.81
2023-05-19T18:40:36.888Z,69.85
2023-05-19T18:43:09.859Z,69.88
2023-05-19T18:45:42.792Z,69.63
2023-05-19T18:48:17.647Z,69.66
2023-05-19T18:50:52.146Z,69.56
2023-05-19T18:53:25.881Z,69.41
2023-05-19T18:55:58.644Z,69.35
2023-05-19T18:58:31.457Z,69.28
2023-05-19T19:01:07.615Z,69.39
2023-05-19T19:03:42.660Z,69.13
2023-05-19T19:06:17.744Z,69.14
2023-05-19T19:08:50.813Z,69.05
2023-05-19T19:11:23.809Z,68.92
2023-05-19T19:14:03.416Z,68.97
2023-05-19T19:16:37.970Z,68.81
2023-05-19T19:19:11.287Z,68.82
2023-05-19T19:21:44.140Z,68.92
2023-05-19T19:24:22.048Z,68.70
2023-05-19T19:27:04.302Z,68.82
2023-05-19T19:29:47.447Z,68.95
2023-05-19T19:32:27.462Z,68.91
2023-05-19T19:35:12.878Z,68.85
2023-05-19T19:37:47.101Z,69.04
2023-05-19T19:43:11.035Z,69.15
2023-05-19T19:45:55.112Z,69.24
2023-05-19T19:48:39.031Z,69.53
2023-05-19T19:51:13.069Z,69.58
2023-05-19T19:53:45.980Z,69.54
2023-05-19T19:56:28.101Z,69.49
2023-05-19T19:59:09.073Z,69.55
2023-05-19T20:01:46.691Z,69.54
2023-05-19T20:04:31.542Z,69.69
2023-05-19T20:07:25.857Z,69.84
2023-05-19T20:10:11.440Z,69.90
2023-05-19T20:12:53.750Z,70.02
2023-05-19T20:15:27.759Z,70.32
2023-05-19T20:18:02.620Z,70.32
2023-05-19T20:20:45.825Z,70.26
2023-05-19T20:23:31.555Z,70.48
2023-05-19T20:28:45.337Z,70.49
2023-05-19T20:31:21.984Z,70.58
2023-05-19T20:33:55.725Z,70.64
2023-05-19T20:36:31.463Z,70.81
2023-05-19T20:39:10.268Z,70.81
2023-05-19T20:41:45.165Z,71.00
2023-05-19T20:44:21.293Z,70.88
2023-05-19T20:47:02.376Z,70.88
2023-05-19T20:49:41.273Z,71.10
2023-05-19T20:52:19.663Z,71.24
2023-05-19T20:54:55.377Z,71.25
2023-05-19T20:57:35.379Z,71.30
2023-05-19T21:00:40.486Z,71.50
2023-05-19T21:03:15.245Z,71.79
2023-05-19T21:06:01.292Z,72.09
2023-05-19T21:08:55.220Z,72.20
2023-05-19T21:11:40.361Z,72.36
2023-05-19T21:14:41.474Z,72.48
2023-05-19T21:17:24.994Z,72.83
2023-05-19T21:20:00.933Z,72.95
2023-05-19T21:22:53.388Z,72.88
2023-05-19T21:25:41.514Z,73.04
2023-05-19T21:28:15.348Z,73.05
2023-05-19T21:30:54.823Z,73.21
2023-05-19T21:33:29.386Z,73.14
2023-05-19T21:36:16.989Z,73.09
2023-05-19T21:38:56.209Z,73.17
2023-05-19T21:41:32.095Z,73.21
2023-05-19T21:44:10.226Z,73.19
2023-05-19T21:46:45.889Z,73.19
2023-05-19T21:49:24.660Z,73.30
2023-05-19T21:52:00.120Z,73.22
2023-05-19T21:54:42.497Z,73.37
2023-05-19T21:57:19.847Z,73.43
2023-05-19T21:59:56.775Z,73.38
2023-05-19T22:02:31.951Z,73.50
2023-05-19T22:05:09.910Z,73.51
2023-05-19T22:07:49.100Z,73.58
2023-05-19T22:10:26.745Z,73.70
2023-05-19T22:13:05.181Z,73.78
2023-05-19T22:15:43.529Z,73.78
2023-05-19T22:18:32.331Z,73.79
2023-05-19T22:21:09.597Z,73.89
2023-05-19T22:23:51.174Z,73.95
2023-05-19T22:26:27.368Z,73.90
2023-05-19T22:29:02.297Z,73.91
2023-05-19T22:31:43.106Z,73.93
2023-05-19T22:34:18.455Z,73.87
2023-05-19T22:36:53.826Z,73.95
2023-05-19T22:39:38.205Z,73.93
2023-05-19T22:42:14.896Z,73.89
2023-05-19T22:44:54.050Z,73.99
2023-05-19T22:47:34.319Z,74.06
2023-05-19T22:50:20.758Z,74.04
2023-05-19T22:52:56.939Z,74.08
2023-05-19T22:55:34.863Z,74.25
2023-05-19T22:58:21.597Z,74.42
2023-05-19T23:00:58.349Z,74.59
2023-05-19T23:03:33.569Z,74.62
2023-05-19T23:06:09.161Z,74.61
2023-05-19T23:08:49.205Z,74.70
2023-05-19T23:11:24.264Z,74.68
2023-05-19T23:14:06.069Z,74.70
2023-05-19T23:16:42.478Z,74.78
2023-05-19T23:19:26.451Z,74.69
2023-05-19T23:22:02.713Z,74.69
2023-05-19T23:24:41.567Z,74.70
2023-05-19T23:27:18.692Z,74.67
2023-05-19T23:29:55.108Z,74.71
2023-05-19T23:32:32.354Z,74.70
2023-05-19T23:35:21.106Z,74.70
2023-05-19T23:38:16.496Z,74.61
2023-05-19T23:40:55.077Z,74.67
2023-05-19T23:43:33.224Z,74.79
2023-05-19T23:46:11.593Z,74.78
2023-05-19T23:48:47.920Z,74.72
2023-05-19T23:51:25.519Z,74.82
2023-05-19T23:54:07.430Z,74.75
2023-05-19T23:56:43.312Z,74.83
2023-05-19T23:59:22.966Z,75.08
